sensor_id;sensor_type;location;lat;lon;timestamp;pressure;altitude;pressure_sealevel;temperature;humidity
10115;BME280;5097;43.260;27.812;2022-09-16T00:02:38;99226.84;;;23.33;51.45
10115;BME280;5097;43.260;27.812;2022-09-16T00:05:24;99195.03;;;23.28;51.19
10115;BME280;5097;43.260;27.812;2022-09-16T00:08:08;99228.97;;;23.52;50.60
10115;BME280;5097;43.260;27.812;2022-09-16T00:10:58;99190.38;;;23.52;50.38
10115;BME280;5097;43.260;27.812;2022-09-16T00:13:43;99218.44;;;23.72;50.61
10115;BME280;5097;43.260;27.812;2022-09-16T00:16:28;99190.97;;;23.47;51.01
10115;BME280;5097;43.260;27.812;2022-09-16T00:19:12;99192.09;;;23.23;51.71
10115;BME280;5097;43.260;27.812;2022-09-16T00:21:56;99198.97;;;23.25;52.07
10115;BME280;5097;43.260;27.812;2022-09-16T00:24:40;99228.31;;;23.50;52.30
10115;BME280;5097;43.260;27.812;2022-09-16T00:27:26;99192.16;;;23.45;51.94
10115;BME280;5097;43.260;27.812;2022-09-16T00:30:10;99187.41;;;23.47;51.74
10115;BME280;5097;43.260;27.812;2022-09-16T00:32:54;99200.38;;;23.36;52.23
10115;BME280;5097;43.260;27.812;2022-09-16T00:35:40;99188.09;;;23.34;52.16
10115;BME280;5097;43.260;27.812;2022-09-16T00:38:24;99193.41;;;23.27;52.33
10115;BME280;5097;43.260;27.812;2022-09-16T00:41:14;99190.88;;;23.40;52.04
10115;BME280;5097;43.260;27.812;2022-09-16T00:44:02;99142.34;;;23.10;52.20
10115;BME280;5097;43.260;27.812;2022-09-16T00:46:47;99201.72;;;23.62;51.77
10115;BME280;5097;43.260;27.812;2022-09-16T00:49:32;99214.50;;;23.90;51.28
10115;BME280;5097;43.260;27.812;2022-09-16T00:52:17;99186.06;;;23.72;51.14
10115;BME280;5097;43.260;27.812;2022-09-16T00:55:05;99210.41;;;23.94;51.32
10115;BME280;5097;43.260;27.812;2022-09-16T00:57:50;99190.16;;;23.68;51.52
10115;BME280;5097;43.260;27.812;2022-09-16T01:00:37;99177.31;;;23.70;51.24
10115;BME280;5097;43.260;27.812;2022-09-16T01:03:22;99200.91;;;23.83;51.17
10115;BME280;5097;43.260;27.812;2022-09-16T01:06:07;99222.00;;;23.95;51.63
10115;BME280;5097;43.260;27.812;2022-09-16T01:08:54;99186.41;;;23.48;52.35
10115;BME280;5097;43.260;27.812;2022-09-16T01:11:38;99220.69;;;23.54;53.12
10115;BME280;5097;43.260;27.812;2022-09-16T01:14:24;99214.94;;;23.27;53.71
10115;BME280;5097;43.260;27.812;2022-09-16T01:24:13;99215.16;;;22.87;54.52
10115;BME280;5097;43.260;27.812;2022-09-16T01:27:31;99211.84;;;23.00;54.29
10115;BME280;5097;43.260;27.812;2022-09-16T01:30:49;99173.56;;;22.75;54.05
10115;BME280;5097;43.260;27.812;2022-09-16T01:33:45;99198.19;;;22.87;54.01
10115;BME280;5097;43.260;27.812;2022-09-16T01:36:39;99213.59;;;22.93;54.10
10115;BME280;5097;43.260;27.812;2022-09-16T01:39:29;99161.59;;;22.77;53.81
10115;BME280;5097;43.260;27.812;2022-09-16T01:42:21;99184.72;;;22.87;53.89
10115;BME280;5097;43.260;27.812;2022-09-16T01:45:14;99156.13;;;22.71;53.47
10115;BME280;5097;43.260;27.812;2022-09-16T01:48:07;99162.81;;;22.90;53.21
10115;BME280;5097;43.260;27.812;2022-09-16T01:50:58;99154.00;;;23.11;52.69
10115;BME280;5097;43.260;27.812;2022-09-16T01:53:48;99187.34;;;23.25;52.79
10115;BME280;5097;43.260;27.812;2022-09-16T01:56:40;99191.22;;;23.52;52.18
10115;BME280;5097;43.260;27.812;2022-09-16T01:59:32;99197.28;;;23.39;52.53
10115;BME280;5097;43.260;27.812;2022-09-16T02:02:20;99197.81;;;23.35;52.81
10115;BME280;5097;43.260;27.812;2022-09-16T02:05:13;99172.28;;;23.01;52.82
10115;BME280;5097;43.260;27.812;2022-09-16T02:08:04;99185.84;;;23.07;53.14
10115;BME280;5097;43.260;27.812;2022-09-16T02:10:54;99198.28;;;23.08;53.13
10115;BME280;5097;43.260;27.812;2022-09-16T02:13:41;99209.53;;;23.12;53.23
10115;BME280;5097;43.260;27.812;2022-09-16T02:16:31;99187.13;;;22.82;53.62
10115;BME280;5097;43.260;27.812;2022-09-16T02:19:20;99179.59;;;22.77;53.82
10115;BME280;5097;43.260;27.812;2022-09-16T02:22:13;99203.38;;;22.73;54.26
10115;BME280;5097;43.260;27.812;2022-09-16T02:24:59;99149.81;;;22.02;55.50
10115;BME280;5097;43.260;27.812;2022-09-16T02:27:46;99180.00;;;22.36;55.32
10115;BME280;5097;43.260;27.812;2022-09-16T02:30:33;99175.78;;;22.33;55.11
10115;BME280;5097;43.260;27.812;2022-09-16T02:33:18;99170.94;;;22.29;54.98
10115;BME280;5097;43.260;27.812;2022-09-16T02:36:04;99204.47;;;22.64;54.57
10115;BME280;5097;43.260;27.812;2022-09-16T02:38:54;99168.19;;;22.14;55.60
10115;BME280;5097;43.260;27.812;2022-09-16T02:41:39;99174.72;;;21.96;55.70
10115;BME280;5097;43.260;27.812;2022-09-16T02:44:24;99220.34;;;21.81;56.52
10115;BME280;5097;43.260;27.812;2022-09-16T02:47:13;99183.81;;;21.64;56.54
10115;BME280;5097;43.260;27.812;2022-09-16T02:50:03;99179.41;;;21.71;56.60
10115;BME280;5097;43.260;27.812;2022-09-16T02:52:57;99174.44;;;21.59;57.42
10115;BME280;5097;43.260;27.812;2022-09-16T02:55:51;99173.50;;;21.75;56.75
10115;BME280;5097;43.260;27.812;2022-09-16T02:58:37;99205.19;;;22.12;56.30
10115;BME280;5097;43.260;27.812;2022-09-16T03:01:21;99193.22;;;21.91;56.41
10115;BME280;5097;43.260;27.812;2022-09-16T03:04:07;99177.34;;;22.04;56.47
10115;BME280;5097;43.260;27.812;2022-09-16T03:06:52;99198.84;;;22.27;56.19
10115;BME280;5097;43.260;27.812;2022-09-16T03:09:40;99165.91;;;21.79;56.85
10115;BME280;5097;43.260;27.812;2022-09-16T03:12:41;99166.63;;;21.73;57.30
10115;BME280;5097;43.260;27.812;2022-09-16T03:15:38;99135.34;;;21.49;57.49
10115;BME280;5097;43.260;27.812;2022-09-16T03:18:44;99160.41;;;21.72;57.10
10115;BME280;5097;43.260;27.812;2022-09-16T03:21:41;99203.59;;;22.02;57.09
10115;BME280;5097;43.260;27.812;2022-09-16T03:24:36;99189.91;;;22.12;56.35
10115;BME280;5097;43.260;27.812;2022-09-16T03:27:30;99207.75;;;22.28;56.74
10115;BME280;5097;43.260;27.812;2022-09-16T03:30:17;99147.50;;;21.68;57.13
10115;BME280;5097;43.260;27.812;2022-09-16T03:33:04;99204.09;;;21.98;57.24
10115;BME280;5097;43.260;27.812;2022-09-16T03:35:51;99171.28;;;21.48;57.97
10115;BME280;5097;43.260;27.812;2022-09-16T03:38:36;99177.78;;;21.62;57.75
10115;BME280;5097;43.260;27.812;2022-09-16T03:41:22;99190.47;;;21.76;57.46
10115;BME280;5097;43.260;27.812;2022-09-16T03:44:06;99190.97;;;21.80;57.49
10115;BME280;5097;43.260;27.812;2022-09-16T03:46:51;99225.69;;;22.13;57.01
10115;BME280;5097;43.260;27.812;2022-09-16T03:49:36;99218.47;;;22.13;56.83
10115;BME280;5097;43.260;27.812;2022-09-16T03:52:21;99202.41;;;21.73;57.63
10115;BME280;5097;43.260;27.812;2022-09-16T03:55:05;99224.47;;;21.60;58.07
10115;BME280;5097;43.260;27.812;2022-09-16T03:57:51;99192.09;;;21.46;58.26
10115;BME280;5097;43.260;27.812;2022-09-16T04:00:35;99241.13;;;21.87;58.26
10115;BME280;5097;43.260;27.812;2022-09-16T04:03:22;99210.03;;;21.62;58.23
10115;BME280;5097;43.260;27.812;2022-09-16T04:06:11;99191.25;;;21.45;58.36
10115;BME280;5097;43.260;27.812;2022-09-16T04:08:55;99218.09;;;21.62;58.97
10115;BME280;5097;43.260;27.812;2022-09-16T04:11:43;99198.09;;;21.64;58.59
10115;BME280;5097;43.260;27.812;2022-09-16T04:14:27;99240.19;;;22.03;58.44
10115;BME280;5097;43.260;27.812;2022-09-16T04:17:11;99195.88;;;21.68;59.13
10115;BME280;5097;43.260;27.812;2022-09-16T04:19:57;99236.75;;;22.18;57.78
10115;BME280;5097;43.260;27.812;2022-09-16T04:22:41;99222.53;;;22.32;56.39
10115;BME280;5097;43.260;27.812;2022-09-16T04:25:25;99212.03;;;22.46;55.51
10115;BME280;5097;43.260;27.812;2022-09-16T04:28:10;99251.28;;;22.93;55.36
10115;BME280;5097;43.260;27.812;2022-09-16T04:30:58;99239.59;;;22.86;55.71
10115;BME280;5097;43.260;27.812;2022-09-16T04:33:42;99216.16;;;22.71;55.81
10115;BME280;5097;43.260;27.812;2022-09-16T04:36:28;99216.09;;;22.94;53.59
10115;BME280;5097;43.260;27.812;2022-09-16T04:39:12;99211.75;;;23.08;54.49
10115;BME280;5097;43.260;27.812;2022-09-16T04:41:56;99252.66;;;23.57;53.75
10115;BME280;5097;43.260;27.812;2022-09-16T04:44:41;99261.19;;;23.75;53.73
10115;BME280;5097;43.260;27.812;2022-09-16T04:47:26;99243.25;;;23.68;53.79
10115;BME280;5097;43.260;27.812;2022-09-16T04:50:10;99261.75;;;23.86;53.81
10115;BME280;5097;43.260;27.812;2022-09-16T04:52:56;99261.00;;;23.92;53.44
10115;BME280;5097;43.260;27.812;2022-09-16T04:55:40;99264.84;;;24.04;53.53
10115;BME280;5097;43.260;27.812;2022-09-16T04:58:24;99241.78;;;24.17;49.95
10115;BME280;5097;43.260;27.812;2022-09-16T05:01:09;99249.84;;;24.82;43.81
10115;BME280;5097;43.260;27.812;2022-09-16T05:03:57;99217.53;;;25.30;42.19
10115;BME280;5097;43.260;27.812;2022-09-16T05:06:42;99242.16;;;25.97;40.22
10115;BME280;5097;43.260;27.812;2022-09-16T05:09:27;99220.97;;;26.01;39.71
10115;BME280;5097;43.260;27.812;2022-09-16T05:12:11;99213.56;;;26.36;39.12
10115;BME280;5097;43.260;27.812;2022-09-16T05:14:55;99257.94;;;26.69;41.41
10115;BME280;5097;43.260;27.812;2022-09-16T05:17:39;99221.03;;;26.34;40.64
10115;BME280;5097;43.260;27.812;2022-09-16T05:20:38;99224.41;;;26.50;40.86
10115;BME280;5097;43.260;27.812;2022-09-16T05:23:22;99259.81;;;26.55;42.84
10115;BME280;5097;43.260;27.812;2022-09-16T05:26:10;99254.59;;;26.53;43.53
10115;BME280;5097;43.260;27.812;2022-09-16T05:28:54;99224.38;;;26.23;44.24
10115;BME280;5097;43.260;27.812;2022-09-16T05:31:40;99224.53;;;26.08;43.80
10115;BME280;5097;43.260;27.812;2022-09-16T05:34:24;99219.50;;;25.98;39.14
10115;BME280;5097;43.260;27.812;2022-09-16T05:37:10;99222.09;;;26.60;39.68
10115;BME280;5097;43.260;27.812;2022-09-16T05:39:54;99236.88;;;26.44;42.14
10115;BME280;5097;43.260;27.812;2022-09-16T05:42:39;99232.09;;;26.46;40.65
10115;BME280;5097;43.260;27.812;2022-09-16T05:45:24;99231.06;;;26.34;42.88
10115;BME280;5097;43.260;27.812;2022-09-16T05:48:13;99206.28;;;26.43;42.89
10115;BME280;5097;43.260;27.812;2022-09-16T05:50:59;99271.94;;;26.99;42.33
10115;BME280;5097;43.260;27.812;2022-09-16T05:53:44;99233.19;;;26.72;42.90
10115;BME280;5097;43.260;27.812;2022-09-16T05:56:29;99243.16;;;26.51;42.11
10115;BME280;5097;43.260;27.812;2022-09-16T05:59:15;99251.53;;;26.76;42.99
10115;BME280;5097;43.260;27.812;2022-09-16T06:01:59;99235.66;;;27.00;41.88
10115;BME280;5097;43.260;27.812;2022-09-16T06:04:44;99242.69;;;27.28;41.16
10115;BME280;5097;43.260;27.812;2022-09-16T06:07:27;99220.81;;;27.16;41.03
10115;BME280;5097;43.260;27.812;2022-09-16T06:10:11;99258.16;;;27.07;38.62
10115;BME280;5097;43.260;27.812;2022-09-16T06:12:55;99198.31;;;27.09;37.37
10115;BME280;5097;43.260;27.812;2022-09-16T06:15:47;99228.41;;;27.66;36.31
10115;BME280;5097;43.260;27.812;2022-09-16T06:18:32;99241.22;;;27.91;35.97
10115;BME280;5097;43.260;27.812;2022-09-16T06:21:16;99249.06;;;28.13;35.15
10115;BME280;5097;43.260;27.812;2022-09-16T06:24:00;99271.56;;;28.26;35.54
10115;BME280;5097;43.260;27.812;2022-09-16T06:26:46;99267.91;;;28.71;34.68
10115;BME280;5097;43.260;27.812;2022-09-16T06:29:30;99234.53;;;29.08;34.12
10115;BME280;5097;43.260;27.812;2022-09-16T06:32:16;99241.97;;;28.75;33.74
10115;BME280;5097;43.260;27.812;2022-09-16T06:34:59;99286.59;;;29.12;34.02
10115;BME280;5097;43.260;27.812;2022-09-16T06:37:43;99287.94;;;29.28;33.41
10115;BME280;5097;43.260;27.812;2022-09-16T06:40:27;99279.66;;;29.16;33.47
10115;BME280;5097;43.260;27.812;2022-09-16T06:43:11;99264.19;;;29.16;33.73
10115;BME280;5097;43.260;27.812;2022-09-16T06:45:57;99226.91;;;28.98;33.20
10115;BME280;5097;43.260;27.812;2022-09-16T06:48:44;99223.38;;;28.98;33.42
10115;BME280;5097;43.260;27.812;2022-09-16T06:51:30;99247.44;;;28.94;33.68
10115;BME280;5097;43.260;27.812;2022-09-16T06:54:14;99296.16;;;28.96;34.03
10115;BME280;5097;43.260;27.812;2022-09-16T06:56:58;99268.84;;;28.84;34.31
10115;BME280;5097;43.260;27.812;2022-09-16T06:59:42;99266.69;;;28.67;34.55
10115;BME280;5097;43.260;27.812;2022-09-16T07:02:26;99265.84;;;28.73;34.60
10115;BME280;5097;43.260;27.812;2022-09-16T07:05:11;99289.78;;;29.08;34.32
10115;BME280;5097;43.260;27.812;2022-09-16T07:07:57;99265.00;;;29.17;34.02
10115;BME280;5097;43.260;27.812;2022-09-16T07:10:41;99266.22;;;29.21;33.18
10115;BME280;5097;43.260;27.812;2022-09-16T07:13:25;99288.78;;;29.47;33.24
10115;BME280;5097;43.260;27.812;2022-09-16T07:16:11;99261.28;;;29.55;32.32
10115;BME280;5097;43.260;27.812;2022-09-16T07:18:57;99279.00;;;29.20;32.07
10115;BME280;5097;43.260;27.812;2022-09-16T07:21:44;99267.19;;;29.52;31.50
10115;BME280;5097;43.260;27.812;2022-09-16T07:24:28;99291.19;;;29.73;31.50
10115;BME280;5097;43.260;27.812;2022-09-16T07:27:12;99288.50;;;29.92;31.27
10115;BME280;5097;43.260;27.812;2022-09-16T07:29:56;99267.31;;;29.57;31.33
10115;BME280;5097;43.260;27.812;2022-09-16T07:32:41;99254.63;;;29.32;31.21
10115;BME280;5097;43.260;27.812;2022-09-16T07:35:25;99256.75;;;29.67;31.14
10115;BME280;5097;43.260;27.812;2022-09-16T07:38:11;99267.91;;;29.96;30.97
10115;BME280;5097;43.260;27.812;2022-09-16T07:40:55;99302.81;;;30.18;30.96
10115;BME280;5097;43.260;27.812;2022-09-16T07:43:40;99262.72;;;30.25;30.45
10115;BME280;5097;43.260;27.812;2022-09-16T07:46:25;99290.56;;;30.69;29.88
10115;BME280;5097;43.260;27.812;2022-09-16T07:49:11;99272.78;;;30.36;30.27
10115;BME280;5097;43.260;27.812;2022-09-16T07:51:55;99271.94;;;30.24;30.26
10115;BME280;5097;43.260;27.812;2022-09-16T07:54:40;99293.88;;;30.29;30.69
10115;BME280;5097;43.260;27.812;2022-09-16T07:57:24;99280.28;;;30.11;30.52
10115;BME280;5097;43.260;27.812;2022-09-16T08:00:10;99298.34;;;30.54;29.86
10115;BME280;5097;43.260;27.812;2022-09-16T08:02:55;99294.63;;;30.79;29.98
10115;BME280;5097;43.260;27.812;2022-09-16T08:05:40;99249.63;;;30.46;30.09
10115;BME280;5097;43.260;27.812;2022-09-16T08:08:24;99283.69;;;30.67;29.90
10115;BME280;5097;43.260;27.812;2022-09-16T08:11:10;99266.66;;;30.41;30.30
10115;BME280;5097;43.260;27.812;2022-09-16T08:13:57;99284.28;;;30.57;29.90
10115;BME280;5097;43.260;27.812;2022-09-16T08:16:41;99292.94;;;30.66;30.48
10115;BME280;5097;43.260;27.812;2022-09-16T08:19:25;99271.63;;;30.74;29.76
10115;BME280;5097;43.260;27.812;2022-09-16T08:22:09;99275.28;;;30.68;30.04
10115;BME280;5097;43.260;27.812;2022-09-16T08:24:53;99290.47;;;30.88;29.96
10115;BME280;5097;43.260;27.812;2022-09-16T08:27:38;99309.66;;;30.93;29.66
10115;BME280;5097;43.260;27.812;2022-09-16T08:30:22;99256.81;;;30.70;29.63
10115;BME280;5097;43.260;27.812;2022-09-16T08:33:07;99294.94;;;30.58;29.92
10115;BME280;5097;43.260;27.812;2022-09-16T08:35:57;99258.69;;;30.39;30.29
10115;BME280;5097;43.260;27.812;2022-09-16T08:38:42;99257.34;;;30.49;30.12
10115;BME280;5097;43.260;27.812;2022-09-16T08:41:47;99283.94;;;30.89;29.53
10115;BME280;5097;43.260;27.812;2022-09-16T08:44:42;99256.56;;;30.84;29.49
10115;BME280;5097;43.260;27.812;2022-09-16T08:47:34;99280.56;;;31.05;29.56
10115;BME280;5097;43.260;27.812;2022-09-16T08:50:25;99240.56;;;30.99;29.58
10115;BME280;5097;43.260;27.812;2022-09-16T08:53:15;99221.84;;;31.03;29.52
10115;BME280;5097;43.260;27.812;2022-09-16T08:56:02;99245.91;;;31.18;29.46
10115;BME280;5097;43.260;27.812;2022-09-16T08:58:50;99253.94;;;31.01;29.49
10115;BME280;5097;43.260;27.812;2022-09-16T09:01:41;99285.88;;;31.36;29.25
10115;BME280;5097;43.260;27.812;2022-09-16T09:04:28;99260.38;;;31.06;29.14
10115;BME280;5097;43.260;27.812;2022-09-16T09:07:18;99273.41;;;30.92;29.47
10115;BME280;5097;43.260;27.812;2022-09-16T09:10:12;99251.22;;;31.01;29.23
10115;BME280;5097;43.260;27.812;2022-09-16T09:13:04;99227.06;;;31.16;29.27
10115;BME280;5097;43.260;27.812;2022-09-16T09:16:00;99275.41;;;31.56;29.23
10115;BME280;5097;43.260;27.812;2022-09-16T09:18:53;99269.22;;;31.73;29.07
10115;BME280;5097;43.260;27.812;2022-09-16T09:21:47;99223.25;;;30.93;29.36
10115;BME280;5097;43.260;27.812;2022-09-16T09:24:42;99280.66;;;31.22;29.41
10115;BME280;5097;43.260;27.812;2022-09-16T09:27:34;99217.44;;;30.66;29.81
10115;BME280;5097;43.260;27.812;2022-09-16T09:30:23;99272.69;;;31.45;29.07
10115;BME280;5097;43.260;27.812;2022-09-16T09:33:19;99272.59;;;31.39;29.10
10115;BME280;5097;43.260;27.812;2022-09-16T09:36:44;99281.13;;;31.43;28.98
10115;BME280;5097;43.260;27.812;2022-09-16T09:39:45;99254.88;;;31.66;28.79
10115;BME280;5097;43.260;27.812;2022-09-16T09:42:35;99236.41;;;31.32;29.00
10115;BME280;5097;43.260;27.812;2022-09-16T09:45:25;99235.44;;;31.62;29.26
10115;BME280;5097;43.260;27.812;2022-09-16T09:48:15;99256.56;;;31.55;29.31
10115;BME280;5097;43.260;27.812;2022-09-16T09:51:05;99241.13;;;31.49;29.32
10115;BME280;5097;43.260;27.812;2022-09-16T09:53:58;99237.22;;;31.45;28.98
10115;BME280;5097;43.260;27.812;2022-09-16T09:56:44;99237.78;;;31.70;28.65
10115;BME280;5097;43.260;27.812;2022-09-16T09:59:32;99218.66;;;31.58;28.47
10115;BME280;5097;43.260;27.812;2022-09-16T10:02:21;99217.88;;;31.46;28.93
10115;BME280;5097;43.260;27.812;2022-09-16T10:05:08;99275.31;;;31.63;28.82
10115;BME280;5097;43.260;27.812;2022-09-16T10:07:59;99259.72;;;31.75;28.57
10115;BME280;5097;43.260;27.812;2022-09-16T10:10:48;99277.41;;;32.14;28.46
10115;BME280;5097;43.260;27.812;2022-09-16T10:13:34;99246.81;;;31.59;29.08
10115;BME280;5097;43.260;27.812;2022-09-16T10:16:19;99267.78;;;31.58;29.15
10115;BME280;5097;43.260;27.812;2022-09-16T10:19:06;99221.94;;;31.32;29.29
10115;BME280;5097;43.260;27.812;2022-09-16T10:21:52;99273.63;;;32.03;28.65
10115;BME280;5097;43.260;27.812;2022-09-16T10:24:38;99276.03;;;31.99;29.33
10115;BME280;5097;43.260;27.812;2022-09-16T10:27:26;99291.44;;;31.65;29.64
10115;BME280;5097;43.260;27.812;2022-09-16T10:30:13;99235.88;;;31.59;29.21
10115;BME280;5097;43.260;27.812;2022-09-16T10:33:01;99264.47;;;32.09;28.82
10115;BME280;5097;43.260;27.812;2022-09-16T10:35:51;99265.47;;;32.32;28.29
10115;BME280;5097;43.260;27.812;2022-09-16T10:38:40;99265.19;;;31.75;28.50
10115;BME280;5097;43.260;27.812;2022-09-16T10:41:26;99240.75;;;31.69;28.64
10115;BME280;5097;43.260;27.812;2022-09-16T10:44:15;99253.72;;;31.90;28.62
10115;BME280;5097;43.260;27.812;2022-09-16T10:47:02;99248.63;;;31.94;29.00
10115;BME280;5097;43.260;27.812;2022-09-16T10:49:50;99256.41;;;32.02;28.88
10115;BME280;5097;43.260;27.812;2022-09-16T10:52:41;99260.00;;;32.32;28.17
10115;BME280;5097;43.260;27.812;2022-09-16T10:55:27;99244.03;;;32.12;28.53
10115;BME280;5097;43.260;27.812;2022-09-16T10:58:15;99245.81;;;32.18;28.61
10115;BME280;5097;43.260;27.812;2022-09-16T11:01:20;99262.41;;;32.45;28.15
10115;BME280;5097;43.260;27.812;2022-09-16T11:04:30;99244.97;;;31.88;28.91
10115;BME280;5097;43.260;27.812;2022-09-16T11:07:28;99248.56;;;32.18;28.58
10115;BME280;5097;43.260;27.812;2022-09-16T11:10:21;99216.50;;;32.01;28.94
10115;BME280;5097;43.260;27.812;2022-09-16T11:13:37;99254.13;;;32.57;28.34
10115;BME280;5097;43.260;27.812;2022-09-16T11:16:51;99225.03;;;32.51;28.40
10115;BME280;5097;43.260;27.812;2022-09-16T11:19:52;99280.31;;;32.53;28.25
10115;BME280;5097;43.260;27.812;2022-09-16T11:22:44;99235.56;;;32.42;27.91
10115;BME280;5097;43.260;27.812;2022-09-16T11:25:39;99233.75;;;32.02;28.30
10115;BME280;5097;43.260;27.812;2022-09-16T11:31:53;99267.81;;;32.57;28.14
10115;BME280;5097;43.260;27.812;2022-09-16T11:34:51;99236.81;;;32.34;28.08
10115;BME280;5097;43.260;27.812;2022-09-16T11:37:45;99237.22;;;32.60;28.00
10115;BME280;5097;43.260;27.812;2022-09-16T11:40:37;99265.16;;;32.62;28.30
10115;BME280;5097;43.260;27.812;2022-09-16T11:43:41;99243.47;;;32.55;27.95
10115;BME280;5097;43.260;27.812;2022-09-16T11:46:31;99226.06;;;32.45;27.82
10115;BME280;5097;43.260;27.812;2022-09-16T11:49:32;99217.84;;;32.45;27.70
10115;BME280;5097;43.260;27.812;2022-09-16T11:52:35;99213.03;;;32.52;28.17
10115;BME280;5097;43.260;27.812;2022-09-16T11:55:30;99196.72;;;32.57;27.76
10115;BME280;5097;43.260;27.812;2022-09-16T11:58:25;99191.75;;;32.88;27.92
10115;BME280;5097;43.260;27.812;2022-09-16T12:01:18;99182.91;;;32.81;27.51
10115;BME280;5097;43.260;27.812;2022-09-16T12:04:12;99204.53;;;32.82;27.84
10115;BME280;5097;43.260;27.812;2022-09-16T12:07:05;99196.06;;;32.84;27.52
10115;BME280;5097;43.260;27.812;2022-09-16T12:09:54;99175.13;;;33.12;27.40
10115;BME280;5097;43.260;27.812;2022-09-16T12:12:43;99186.94;;;33.34;27.60
10115;BME280;5097;43.260;27.812;2022-09-16T12:15:33;99206.38;;;33.38;27.36
10115;BME280;5097;43.260;27.812;2022-09-16T12:18:20;99195.41;;;32.59;27.83
10115;BME280;5097;43.260;27.812;2022-09-16T12:21:10;99193.06;;;32.85;27.44
10115;BME280;5097;43.260;27.812;2022-09-16T12:24:00;99215.38;;;32.94;27.47
10115;BME280;5097;43.260;27.812;2022-09-16T12:26:50;99185.06;;;32.79;27.40
10115;BME280;5097;43.260;27.812;2022-09-16T12:29:41;99199.75;;;33.12;27.84
10115;BME280;5097;43.260;27.812;2022-09-16T12:32:34;99182.03;;;32.97;27.42
10115;BME280;5097;43.260;27.812;2022-09-16T12:35:24;99201.19;;;32.97;27.18
10115;BME280;5097;43.260;27.812;2022-09-16T12:38:14;99198.22;;;33.21;26.96
10115;BME280;5097;43.260;27.812;2022-09-16T12:41:12;99164.38;;;33.49;26.50
10115;BME280;5097;43.260;27.812;2022-09-16T12:44:32;99181.22;;;33.63;26.83
10115;BME280;5097;43.260;27.812;2022-09-16T12:47:36;99188.69;;;33.68;26.36
10115;BME280;5097;43.260;27.812;2022-09-16T12:50:42;99164.72;;;33.31;26.69
10115;BME280;5097;43.260;27.812;2022-09-16T12:53:46;99176.88;;;33.40;27.18
10115;BME280;5097;43.260;27.812;2022-09-16T12:56:48;99157.84;;;33.28;27.08
10115;BME280;5097;43.260;27.812;2022-09-16T12:59:50;99181.09;;;33.53;26.82
10115;BME280;5097;43.260;27.812;2022-09-16T13:02:42;99171.41;;;33.23;26.75
10115;BME280;5097;43.260;27.812;2022-09-16T13:05:29;99162.94;;;33.24;27.35
10115;BME280;5097;43.260;27.812;2022-09-16T13:08:20;99159.31;;;33.63;26.85
10115;BME280;5097;43.260;27.812;2022-09-16T13:11:13;99163.66;;;33.59;26.46
10115;BME280;5097;43.260;27.812;2022-09-16T13:14:22;99145.19;;;33.99;26.31
10115;BME280;5097;43.260;27.812;2022-09-16T13:17:10;99166.66;;;33.57;26.37
10115;BME280;5097;43.260;27.812;2022-09-16T13:19:57;99172.13;;;33.57;27.00
10115;BME280;5097;43.260;27.812;2022-09-16T13:22:47;99129.38;;;33.29;26.49
10115;BME280;5097;43.260;27.812;2022-09-16T13:25:41;99158.47;;;33.35;26.87
10115;BME280;5097;43.260;27.812;2022-09-16T13:28:36;99154.19;;;33.22;27.13
10115;BME280;5097;43.260;27.812;2022-09-16T13:31:28;99130.31;;;33.18;26.84
10115;BME280;5097;43.260;27.812;2022-09-16T13:34:16;99150.50;;;33.12;27.00
10115;BME280;5097;43.260;27.812;2022-09-16T13:37:01;99125.09;;;32.94;26.47
10115;BME280;5097;43.260;27.812;2022-09-16T13:39:45;99128.84;;;33.10;26.58
10115;BME280;5097;43.260;27.812;2022-09-16T13:42:31;99149.69;;;33.33;26.65
10115;BME280;5097;43.260;27.812;2022-09-16T13:45:33;99129.09;;;33.53;26.10
10115;BME280;5097;43.260;27.812;2022-09-16T13:48:25;99154.59;;;33.81;26.27
10115;BME280;5097;43.260;27.812;2022-09-16T13:51:16;99128.41;;;33.40;26.67
10115;BME280;5097;43.260;27.812;2022-09-16T13:54:00;99123.44;;;33.15;26.81
10115;BME280;5097;43.260;27.812;2022-09-16T13:56:54;99161.00;;;33.20;26.71
10115;BME280;5097;43.260;27.812;2022-09-16T13:59:54;99152.19;;;33.18;26.94
10115;BME280;5097;43.260;27.812;2022-09-16T14:02:57;99123.31;;;33.05;27.13
10115;BME280;5097;43.260;27.812;2022-09-16T14:05:56;99140.56;;;33.05;26.89
10115;BME280;5097;43.260;27.812;2022-09-16T14:08:52;99089.03;;;32.58;27.25
10115;BME280;5097;43.260;27.812;2022-09-16T14:11:45;99157.00;;;33.50;26.83
10115;BME280;5097;43.260;27.812;2022-09-16T14:14:34;99110.25;;;32.90;26.83
10115;BME280;5097;43.260;27.812;2022-09-16T14:17:38;99139.22;;;32.52;27.54
10115;BME280;5097;43.260;27.812;2022-09-16T14:20:24;99159.47;;;32.34;27.61
10115;BME280;5097;43.260;27.812;2022-09-16T14:23:16;99153.84;;;32.40;27.92
10115;BME280;5097;43.260;27.812;2022-09-16T14:26:09;99112.25;;;32.21;27.80
10115;BME280;5097;43.260;27.812;2022-09-16T14:29:01;99107.50;;;32.00;28.18
10115;BME280;5097;43.260;27.812;2022-09-16T14:31:46;99106.47;;;31.72;28.65
10115;BME280;5097;43.260;27.812;2022-09-16T14:34:33;99135.03;;;31.81;28.58
10115;BME280;5097;43.260;27.812;2022-09-16T14:37:18;99102.72;;;31.61;28.83
10115;BME280;5097;43.260;27.812;2022-09-16T14:40:10;99096.94;;;31.17;29.34
10115;BME280;5097;43.260;27.812;2022-09-16T14:43:00;99137.22;;;32.13;28.89
10115;BME280;5097;43.260;27.812;2022-09-16T14:45:48;99107.22;;;31.67;28.87
10115;BME280;5097;43.260;27.812;2022-09-16T14:48:36;99100.00;;;31.32;29.48
10115;BME280;5097;43.260;27.812;2022-09-16T14:51:23;99110.56;;;31.29;29.85
10115;BME280;5097;43.260;27.812;2022-09-16T14:54:15;99129.25;;;31.08;29.59
10115;BME280;5097;43.260;27.812;2022-09-16T14:57:04;99151.59;;;31.34;29.54
10115;BME280;5097;43.260;27.812;2022-09-16T14:59:49;99131.84;;;31.15;29.20
10115;BME280;5097;43.260;27.812;2022-09-16T15:02:37;99154.84;;;30.95;29.55
10115;BME280;5097;43.260;27.812;2022-09-16T15:05:26;99191.84;;;30.91;29.42
10115;BME280;5097;43.260;27.812;2022-09-16T15:08:18;99234.97;;;30.94;29.83